createdAt,value
2019-06-26T00:02:13.936Z,17.70
2019-06-26T00:04:42.660Z,17.70
2019-06-26T00:07:11.385Z,17.80
2019-06-26T00:09:40.116Z,17.70
2019-06-26T00:12:08.824Z,17.70
2019-06-26T00:14:38.863Z,17.70
2019-06-26T00:17:07.821Z,17.70
2019-06-26T00:19:36.540Z,17.80
2019-06-26T00:22:05.288Z,17.80
2019-06-26T00:24:34.000Z,17.90
2019-06-26T00:27:02.759Z,17.90
2019-06-26T00:29:31.665Z,17.80
2019-06-26T00:32:00.437Z,17.80
2019-06-26T00:34:29.148Z,17.80
2019-06-26T00:36:57.912Z,17.80
2019-06-26T00:39:26.609Z,17.80
2019-06-26T00:41:55.336Z,17.70
2019-06-26T00:44:24.092Z,17.80
2019-06-26T00:46:52.813Z,17.80
2019-06-26T00:49:21.543Z,17.80
2019-06-26T00:51:50.253Z,17.80
2019-06-26T00:54:18.970Z,17.80
2019-06-26T00:56:47.700Z,17.70
2019-06-26T00:59:16.424Z,17.70
2019-06-26T01:01:45.258Z,17.70
2019-06-26T01:04:15.618Z,17.60
2019-06-26T01:06:44.342Z,17.60
2019-06-26T01:09:15.886Z,17.50
2019-06-26T01:11:45.022Z,17.40
2019-06-26T01:14:13.740Z,17.30
2019-06-26T01:16:42.453Z,17.30
2019-06-26T01:19:11.173Z,17.20
2019-06-26T01:21:39.896Z,17.20
2019-06-26T01:24:08.610Z,17.10
2019-06-26T01:26:37.374Z,17.20
2019-06-26T01:29:06.169Z,17.10
2019-06-26T01:31:34.946Z,17.00
2019-06-26T01:34:03.681Z,17.00
2019-06-26T01:36:32.409Z,17.10
2019-06-26T01:39:02.535Z,17.00
2019-06-26T01:41:31.251Z,17.00
2019-06-26T01:44:13.572Z,17.00
2019-06-26T01:46:30.337Z,17.00
2019-06-26T01:48:58.981Z,17.10
2019-06-26T01:51:27.696Z,17.10
2019-06-26T01:53:56.433Z,17.00
2019-06-26T01:56:25.153Z,16.90
2019-06-26T01:58:53.916Z,17.00
2019-06-26T02:01:22.908Z,16.90
2019-06-26T02:03:51.629Z,16.90
2019-06-26T02:06:20.341Z,17.00
2019-06-26T02:08:49.052Z,17.00
2019-06-26T02:11:17.812Z,17.00
2019-06-26T02:13:46.534Z,17.10
2019-06-26T02:16:15.253Z,17.10
2019-06-26T02:18:45.616Z,17.00
2019-06-26T02:21:14.333Z,17.00
2019-06-26T02:23:43.108Z,17.00
2019-06-26T02:26:11.815Z,17.00
2019-06-26T02:28:40.538Z,17.00
2019-06-26T02:31:09.460Z,17.00
2019-06-26T02:33:38.190Z,17.10
2019-06-26T02:36:06.908Z,17.10
2019-06-26T02:38:35.629Z,17.20
2019-06-26T02:41:04.384Z,17.20
2019-06-26T02:43:33.100Z,17.20
2019-06-26T02:46:01.838Z,17.20
2019-06-26T02:48:30.545Z,17.30
2019-06-26T02:50:59.260Z,17.40
2019-06-26T02:53:28.019Z,17.50
2019-06-26T02:55:56.745Z,17.50
2019-06-26T02:58:25.456Z,17.60
2019-06-26T03:00:54.201Z,17.70
2019-06-26T03:03:22.896Z,17.80
2019-06-26T03:05:51.621Z,17.80
2019-06-26T03:08:20.341Z,18.00
2019-06-26T03:10:49.165Z,18.00
2019-06-26T03:13:17.882Z,18.10
2019-06-26T03:15:49.514Z,18.20
2019-06-26T03:18:16.972Z,18.40
2019-06-26T03:20:48.626Z,18.30
2019-06-26T03:23:17.349Z,18.40
2019-06-26T03:25:46.100Z,18.30
2019-06-26T03:28:14.854Z,18.20
2019-06-26T03:30:44.177Z,18.20
2019-06-26T03:33:12.835Z,18.30
2019-06-26T03:35:41.553Z,18.30
2019-06-26T03:38:10.272Z,18.30
2019-06-26T03:40:38.997Z,18.20
2019-06-26T03:43:07.846Z,18.20
2019-06-26T03:45:36.772Z,18.30
2019-06-26T03:48:05.596Z,18.40
2019-06-26T03:50:34.316Z,18.30
2019-06-26T03:53:03.037Z,18.20
2019-06-26T03:55:31.756Z,18.20
2019-06-26T03:58:01.509Z,18.20
2019-06-26T04:00:33.156Z,18.10
2019-06-26T04:03:01.892Z,18.30
2019-06-26T04:05:30.719Z,18.50
2019-06-26T04:07:59.463Z,18.70
2019-06-26T04:10:28.334Z,18.80
2019-06-26T04:12:57.112Z,18.90
2019-06-26T04:15:40.933Z,18.90
2019-06-26T04:17:56.192Z,19.10
2019-06-26T04:20:24.899Z,19.20
2019-06-26T04:22:53.988Z,19.40
2019-06-26T04:25:22.708Z,19.70
2019-06-26T04:27:51.419Z,19.90
2019-06-26T04:30:20.143Z,20.10
2019-06-26T04:32:48.863Z,20.00
2019-06-26T04:35:17.583Z,20.30
2019-06-26T04:37:46.302Z,20.30
2019-06-26T04:40:15.427Z,20.80
2019-06-26T04:42:44.198Z,20.80
2019-06-26T04:45:14.316Z,20.90
2019-06-26T04:47:43.028Z,21.10
2019-06-26T04:50:12.052Z,21.30
2019-06-26T04:52:40.768Z,21.10
2019-06-26T04:55:10.622Z,21.00
2019-06-26T04:57:39.340Z,20.70
2019-06-26T05:00:08.929Z,20.90
2019-06-26T05:02:37.644Z,20.70
2019-06-26T05:05:07.471Z,21.00
2019-06-26T05:07:36.230Z,21.30
2019-06-26T05:10:09.035Z,21.50
2019-06-26T05:12:37.754Z,21.70
2019-06-26T05:15:10.158Z,21.70
2019-06-26T05:17:38.877Z,22.10
2019-06-26T05:20:08.196Z,22.20
2019-06-26T05:22:36.935Z,22.10
2019-06-26T05:25:07.993Z,22.30
2019-06-26T05:27:36.709Z,22.40
2019-06-26T05:30:08.988Z,23.90
2019-06-26T05:32:37.703Z,26.00
2019-06-26T05:35:10.699Z,26.60
2019-06-26T05:37:39.427Z,27.50
2019-06-26T05:40:14.526Z,26.90
2019-06-26T05:42:43.291Z,26.30
2019-06-26T05:45:13.016Z,26.50
2019-06-26T05:47:41.802Z,26.60
2019-06-26T05:50:11.096Z,25.60
2019-06-26T05:52:42.454Z,25.20
2019-06-26T05:55:10.496Z,24.80
2019-06-26T05:57:41.799Z,25.10
2019-06-26T06:00:10.719Z,24.80
2019-06-26T06:02:39.408Z,25.70
2019-06-26T06:05:09.128Z,26.00
2019-06-26T06:07:37.854Z,26.70
2019-06-26T06:10:08.136Z,27.50
2019-06-26T06:12:36.837Z,27.00
2019-06-26T06:15:07.233Z,26.50
2019-06-26T06:17:36.147Z,25.70
2019-06-26T06:20:06.958Z,25.10
2019-06-26T06:22:35.693Z,24.80
2019-06-26T06:25:05.510Z,24.60
2019-06-26T06:27:34.265Z,24.90
2019-06-26T06:30:03.373Z,25.80
2019-06-26T06:32:32.144Z,27.20
2019-06-26T06:35:00.795Z,28.90
2019-06-26T06:37:29.551Z,30.40
2019-06-26T06:39:58.271Z,31.00
2019-06-26T06:42:26.923Z,31.20
2019-06-26T06:44:55.646Z,32.40
2019-06-26T06:47:24.427Z,33.40
2019-06-26T06:49:53.184Z,32.60
2019-06-26T06:52:21.826Z,31.60
2019-06-26T06:54:50.543Z,33.10
2019-06-26T06:57:19.271Z,33.50
2019-06-26T06:59:48.031Z,32.90
2019-06-26T07:02:16.644Z,33.30
2019-06-26T07:04:45.363Z,32.10
2019-06-26T07:07:14.125Z,31.70
2019-06-26T07:09:42.848Z,31.40
2019-06-26T07:12:11.567Z,31.80
2019-06-26T07:14:40.887Z,32.30
2019-06-26T07:17:19.859Z,32.20
2019-06-26T07:19:40.043Z,32.40
2019-06-26T07:22:08.768Z,32.30
2019-06-26T07:24:37.525Z,31.80
2019-06-26T07:27:06.243Z,31.50
2019-06-26T07:29:34.958Z,32.30
2019-06-26T07:32:03.679Z,33.10
2019-06-26T07:34:32.390Z,33.40
2019-06-26T07:37:01.034Z,34.10
2019-06-26T07:39:29.744Z,34.60
2019-06-26T07:41:58.451Z,33.70
2019-06-26T07:44:27.169Z,33.90
2019-06-26T07:46:55.936Z,33.90
2019-06-26T07:49:24.672Z,34.20
2019-06-26T07:51:53.390Z,33.80
2019-06-26T07:54:22.103Z,33.70
2019-06-26T07:56:50.816Z,33.30
2019-06-26T07:59:19.595Z,33.40
2019-06-26T08:01:48.287Z,34.00
2019-06-26T08:04:17.015Z,33.90
2019-06-26T08:06:45.729Z,34.00
2019-06-26T08:09:14.448Z,34.60
2019-06-26T08:11:43.236Z,35.10
2019-06-26T08:14:12.027Z,34.40
2019-06-26T08:16:40.739Z,34.60
2019-06-26T08:19:09.460Z,34.30
2019-06-26T08:21:38.232Z,33.10
2019-06-26T08:24:06.956Z,33.50
2019-06-26T08:26:35.696Z,33.80
2019-06-26T08:29:04.396Z,34.40
2019-06-26T08:31:33.136Z,34.40
2019-06-26T08:34:01.951Z,32.80
2019-06-26T08:36:30.727Z,32.90
2019-06-26T08:38:59.489Z,32.90
2019-06-26T08:41:28.282Z,33.90
2019-06-26T08:43:57.065Z,33.80
2019-06-26T08:46:25.732Z,32.90
2019-06-26T08:48:54.408Z,31.80
2019-06-26T08:51:23.122Z,32.40
2019-06-26T08:53:51.926Z,32.90
2019-06-26T08:56:20.686Z,32.60
2019-06-26T08:58:49.391Z,33.40
2019-06-26T09:01:18.107Z,33.30
2019-06-26T09:03:46.840Z,33.00
2019-06-26T09:06:15.546Z,32.30
2019-06-26T09:08:44.272Z,32.50
2019-06-26T09:11:12.973Z,32.40
2019-06-26T09:13:41.742Z,31.90
2019-06-26T09:16:10.453Z,32.20
2019-06-26T09:18:39.192Z,32.10
2019-06-26T09:21:07.899Z,31.90
2019-06-26T09:23:36.624Z,32.10
2019-06-26T09:26:05.384Z,32.20
2019-06-26T09:28:34.101Z,32.20
2019-06-26T09:31:02.836Z,31.70
2019-06-26T09:33:32.521Z,32.20
2019-06-26T09:36:01.472Z,31.50
2019-06-26T09:38:30.224Z,31.20
2019-06-26T09:40:58.944Z,30.60
2019-06-26T09:43:30.684Z,30.40
2019-06-26T09:45:59.339Z,29.90
2019-06-26T09:48:28.051Z,29.70
2019-06-26T09:50:56.806Z,29.50
2019-06-26T09:53:25.529Z,29.50
2019-06-26T09:55:54.285Z,29.60
2019-06-26T09:58:22.972Z,29.90
2019-06-26T10:00:51.691Z,30.20
2019-06-26T10:03:20.422Z,29.70
2019-06-26T10:05:49.144Z,29.80
2019-06-26T10:08:17.853Z,29.40
2019-06-26T10:10:46.572Z,29.20
2019-06-26T10:13:15.292Z,29.10
2019-06-26T10:15:44.023Z,29.00
2019-06-26T10:18:12.745Z,29.00
2019-06-26T10:20:41.760Z,29.10
2019-06-26T10:23:10.479Z,29.50
2019-06-26T10:25:39.242Z,29.50
2019-06-26T10:28:08.948Z,29.50
2019-06-26T10:30:57.053Z,29.40
2019-06-26T10:33:25.808Z,29.40
2019-06-26T10:35:54.520Z,29.50
2019-06-26T10:38:23.250Z,29.80
2019-06-26T10:40:51.969Z,29.90
2019-06-26T10:43:21.503Z,29.70
2019-06-26T10:45:50.219Z,29.50
2019-06-26T10:48:18.984Z,29.40
2019-06-26T10:50:53.441Z,29.30
2019-06-26T10:53:18.100Z,29.20
2019-06-26T10:55:46.889Z,29.10
2019-06-26T10:58:15.622Z,28.80
2019-06-26T11:00:44.339Z,28.40
2019-06-26T11:03:13.056Z,28.50
2019-06-26T11:05:42.308Z,28.60
2019-06-26T11:08:11.012Z,28.70
2019-06-26T11:10:39.730Z,28.80
2019-06-26T11:13:08.367Z,28.40
2019-06-26T11:15:37.095Z,28.40
2019-06-26T11:18:05.848Z,28.70
2019-06-26T11:20:34.539Z,28.80
2019-06-26T11:23:03.312Z,28.70
2019-06-26T11:25:32.028Z,28.90
2019-06-26T11:28:00.752Z,28.80
2019-06-26T11:30:29.674Z,29.00
2019-06-26T11:32:58.397Z,28.90
2019-06-26T11:35:27.153Z,29.10
2019-06-26T11:37:55.869Z,29.40
2019-06-26T11:40:24.677Z,29.40
2019-06-26T11:42:53.395Z,29.10
2019-06-26T11:45:22.820Z,29.00
2019-06-26T11:47:51.544Z,29.00
2019-06-26T11:50:20.709Z,27.70
2019-06-26T11:52:49.423Z,27.80
2019-06-26T11:55:20.143Z,28.00
2019-06-26T11:57:48.869Z,27.70
2019-06-26T12:00:19.768Z,27.50
2019-06-26T12:02:48.479Z,27.50
2019-06-26T12:05:17.591Z,27.40
2019-06-26T12:07:46.335Z,27.30
2019-06-26T12:10:15.526Z,27.40
2019-06-26T12:12:44.271Z,27.30
2019-06-26T12:15:13.703Z,27.30
2019-06-26T12:17:42.455Z,27.50
2019-06-26T12:20:18.680Z,27.60
2019-06-26T12:22:42.631Z,27.30
2019-06-26T12:25:11.347Z,27.50
2019-06-26T12:27:40.062Z,27.80
2019-06-26T12:30:09.215Z,27.90
2019-06-26T12:32:42.290Z,28.00
2019-06-26T12:35:09.229Z,28.00
2019-06-26T12:37:38.456Z,28.20
2019-06-26T12:40:08.087Z,28.20
2019-06-26T12:42:36.801Z,28.20
2019-06-26T12:45:07.333Z,28.00
2019-06-26T12:47:36.057Z,28.40
2019-06-26T12:50:06.480Z,28.40
2019-06-26T12:52:35.195Z,28.40
2019-06-26T12:55:05.536Z,28.40
2019-06-26T12:57:34.258Z,28.30
2019-06-26T13:00:03.074Z,28.30
2019-06-26T13:02:31.786Z,28.20
2019-06-26T13:05:00.506Z,28.40
2019-06-26T13:07:29.224Z,28.40
2019-06-26T13:09:57.945Z,28.50
2019-06-26T13:12:26.677Z,28.20
2019-06-26T13:14:55.320Z,28.50
2019-06-26T13:17:24.038Z,28.80
2019-06-26T13:19:52.778Z,28.70
2019-06-26T13:22:21.503Z,28.70
2019-06-26T13:24:50.264Z,28.60
2019-06-26T13:27:19.311Z,28.40
2019-06-26T13:29:48.021Z,28.30
2019-06-26T13:32:16.969Z,28.30
2019-06-26T13:34:45.804Z,28.30
2019-06-26T13:37:14.520Z,28.40
2019-06-26T13:39:43.241Z,28.30
2019-06-26T13:42:12.027Z,28.30
2019-06-26T13:44:40.777Z,28.10
2019-06-26T13:47:09.500Z,28.20
2019-06-26T13:49:38.216Z,28.30
2019-06-26T13:52:06.972Z,28.30
2019-06-26T13:54:35.693Z,28.10
2019-06-26T13:57:04.412Z,27.90
2019-06-26T13:59:33.127Z,27.80
2019-06-26T14:02:01.879Z,27.80
2019-06-26T14:04:30.605Z,27.90
2019-06-26T14:06:59.256Z,27.80
2019-06-26T14:09:27.971Z,27.20
2019-06-26T14:11:56.748Z,27.40
2019-06-26T14:14:41.082Z,27.40
2019-06-26T14:16:55.748Z,27.30
2019-06-26T14:19:26.720Z,27.30
2019-06-26T14:21:54.887Z,27.70
2019-06-26T14:24:23.523Z,28.10
2019-06-26T14:26:52.254Z,28.20
2019-06-26T14:29:21.579Z,28.20
2019-06-26T14:31:50.499Z,28.10
2019-06-26T14:34:19.212Z,28.00
2019-06-26T14:36:47.924Z,27.90
2019-06-26T14:39:16.711Z,27.80
2019-06-26T14:41:45.443Z,27.70
2019-06-26T14:44:14.172Z,27.70
2019-06-26T14:46:42.873Z,27.40
2019-06-26T14:49:11.655Z,27.40
2019-06-26T14:51:46.948Z,27.40
2019-06-26T14:54:10.763Z,27.10
2019-06-26T14:56:39.479Z,27.10
2019-06-26T14:59:08.204Z,27.10
2019-06-26T15:01:37.028Z,26.50
2019-06-26T15:04:05.837Z,26.50
2019-06-26T15:06:34.516Z,26.40
2019-06-26T15:09:03.311Z,26.40
2019-06-26T15:11:32.142Z,26.50
2019-06-26T15:14:00.882Z,26.60
2019-06-26T15:16:30.599Z,26.60
2019-06-26T15:18:59.725Z,26.70
2019-06-26T15:21:28.661Z,26.60
2019-06-26T15:23:57.396Z,26.40
2019-06-26T15:26:26.814Z,26.60
2019-06-26T15:28:55.659Z,26.60
2019-06-26T15:31:24.381Z,26.60
2019-06-26T15:33:53.109Z,26.50
2019-06-26T15:36:21.825Z,26.50
2019-06-26T15:38:50.544Z,26.40
2019-06-26T15:41:19.514Z,26.40
2019-06-26T15:43:48.217Z,26.30
2019-06-26T15:46:16.944Z,26.30
2019-06-26T15:48:45.678Z,26.30
2019-06-26T15:51:14.388Z,26.30
2019-06-26T15:53:43.153Z,26.10
2019-06-26T15:56:11.886Z,26.20
2019-06-26T15:58:40.597Z,26.10
2019-06-26T16:01:12.527Z,25.90
2019-06-26T16:03:41.242Z,25.70
2019-06-26T16:06:10.003Z,25.90
2019-06-26T16:08:38.744Z,25.70
2019-06-26T16:11:07.482Z,25.70
2019-06-26T16:13:36.157Z,25.40
2019-06-26T16:16:04.937Z,25.30
2019-06-26T16:18:35.337Z,25.30
2019-06-26T16:21:04.057Z,25.30
2019-06-26T16:23:32.783Z,25.40
2019-06-26T16:26:01.516Z,25.10
2019-06-26T16:28:30.192Z,25.00
2019-06-26T16:30:58.892Z,25.30
2019-06-26T16:33:27.612Z,25.30
2019-06-26T16:35:56.373Z,25.40
2019-06-26T16:38:25.098Z,25.40
2019-06-26T16:40:53.816Z,25.60
2019-06-26T16:43:22.611Z,25.60
2019-06-26T16:45:51.354Z,25.60
2019-06-26T16:48:20.099Z,25.60
2019-06-26T16:50:48.830Z,25.40
2019-06-26T16:53:17.612Z,25.30
2019-06-26T16:55:46.271Z,25.40
2019-06-26T16:58:14.975Z,25.40
2019-06-26T17:00:43.807Z,25.20
2019-06-26T17:03:12.539Z,25.20
2019-06-26T17:05:41.284Z,24.90
2019-06-26T17:08:09.989Z,24.80
2019-06-26T17:10:39.065Z,24.80
2019-06-26T17:13:07.786Z,24.80
2019-06-26T17:15:38.847Z,24.60
2019-06-26T17:18:07.594Z,24.70
2019-06-26T17:20:36.310Z,24.70
2019-06-26T17:23:06.622Z,24.70
2019-06-26T17:25:35.463Z,24.60
2019-06-26T17:28:04.484Z,24.60
2019-06-26T17:30:36.124Z,24.60
2019-06-26T17:33:04.840Z,24.40
2019-06-26T17:35:33.582Z,24.50
2019-06-26T17:38:02.346Z,24.50
2019-06-26T17:40:31.000Z,24.60
2019-06-26T17:43:11.801Z,24.50
2019-06-26T17:45:30.120Z,24.40
2019-06-26T17:47:58.922Z,24.40
2019-06-26T17:50:27.664Z,24.20
2019-06-26T17:52:56.382Z,24.10
2019-06-26T17:55:25.186Z,24.30
2019-06-26T17:57:54.012Z,24.20
2019-06-26T18:00:28.592Z,24.30
2019-06-26T18:02:57.345Z,24.20
2019-06-26T18:05:26.083Z,24.30
2019-06-26T18:07:54.785Z,24.20
2019-06-26T18:10:23.522Z,24.10
2019-06-26T18:12:53.604Z,24.10
2019-06-26T18:15:22.338Z,24.10
2019-06-26T18:17:51.075Z,24.00
2019-06-26T18:20:19.821Z,23.90
2019-06-26T18:22:48.648Z,23.70
2019-06-26T18:25:17.482Z,23.70
2019-06-26T18:27:46.220Z,23.60
2019-06-26T18:30:15.525Z,23.50
2019-06-26T18:32:44.314Z,23.50
2019-06-26T18:35:13.145Z,23.60
2019-06-26T18:37:41.852Z,23.40
2019-06-26T18:40:10.656Z,23.30
2019-06-26T18:42:39.417Z,23.30
2019-06-26T18:45:08.348Z,23.30
2019-06-26T18:47:37.096Z,23.30
2019-06-26T18:50:07.421Z,23.20
2019-06-26T18:52:36.141Z,23.10
2019-06-26T18:55:06.441Z,23.10
2019-06-26T18:57:35.159Z,22.90
2019-06-26T19:00:07.125Z,22.90
2019-06-26T19:02:35.926Z,22.80
2019-06-26T19:05:07.585Z,22.60
2019-06-26T19:07:36.422Z,22.60
2019-06-26T19:10:11.586Z,22.50
2019-06-26T19:12:40.293Z,22.40
2019-06-26T19:15:09.127Z,22.40
2019-06-26T19:17:37.948Z,22.40
2019-06-26T19:20:08.160Z,22.40
2019-06-26T19:22:37.817Z,22.30
2019-06-26T19:25:09.048Z,22.30
2019-06-26T19:27:48.054Z,22.10
2019-06-26T19:30:17.192Z,22.10
2019-06-26T19:32:46.182Z,21.90
2019-06-26T19:35:19.139Z,21.90
2019-06-26T19:37:45.363Z,21.80
2019-06-26T19:40:14.098Z,21.70
2019-06-26T19:42:42.834Z,21.60
2019-06-26T19:45:14.505Z,21.60
2019-06-26T19:47:43.229Z,21.70
2019-06-26T19:50:12.277Z,21.70
2019-06-26T19:52:41.456Z,21.70
2019-06-26T19:55:10.268Z,21.60
2019-06-26T19:57:45.135Z,21.70
2019-06-26T20:00:14.156Z,21.60
2019-06-26T20:02:43.028Z,21.50
2019-06-26T20:05:11.940Z,21.60
2019-06-26T20:07:40.684Z,21.50
2019-06-26T20:10:09.827Z,21.50
2019-06-26T20:12:38.542Z,21.40
2019-06-26T20:15:08.187Z,21.30
2019-06-26T20:17:36.891Z,21.30
2019-06-26T20:20:08.993Z,21.10
2019-06-26T20:22:37.823Z,20.90
2019-06-26T20:25:09.155Z,20.80
2019-06-26T20:27:37.905Z,20.80
2019-06-26T20:30:09.777Z,20.70
2019-06-26T20:32:38.008Z,20.50
2019-06-26T20:35:07.545Z,20.00
2019-06-26T20:37:36.296Z,20.00
2019-06-26T20:40:07.460Z,20.10
2019-06-26T20:42:36.188Z,19.90
2019-06-26T20:45:06.521Z,19.90
2019-06-26T20:47:35.238Z,19.80
2019-06-26T20:50:06.352Z,19.70
2019-06-26T20:52:35.256Z,19.60
2019-06-26T20:55:04.762Z,19.40
2019-06-26T20:57:33.481Z,19.40
2019-06-26T21:00:02.212Z,19.40
2019-06-26T21:02:31.048Z,19.20
2019-06-26T21:04:59.769Z,19.40
2019-06-26T21:07:28.490Z,19.40
2019-06-26T21:09:57.207Z,19.30
2019-06-26T21:12:25.852Z,19.30
2019-06-26T21:14:54.579Z,19.20
2019-06-26T21:17:25.666Z,19.20
2019-06-26T21:19:53.745Z,19.00
2019-06-26T21:22:22.461Z,18.90
2019-06-26T21:24:51.113Z,18.90
2019-06-26T21:27:19.828Z,18.80
2019-06-26T21:29:48.525Z,18.70
2019-06-26T21:32:17.248Z,18.50
2019-06-26T21:34:45.975Z,18.50
2019-06-26T21:37:14.692Z,18.50
2019-06-26T21:39:43.413Z,18.40
2019-06-26T21:42:12.162Z,18.30
2019-06-26T21:44:40.895Z,18.30
2019-06-26T21:47:09.605Z,18.40
2019-06-26T21:49:38.336Z,18.50
2019-06-26T21:52:07.079Z,18.50
2019-06-26T21:54:35.809Z,18.40
2019-06-26T21:57:04.533Z,18.40
2019-06-26T21:59:33.253Z,18.30
2019-06-26T22:02:01.980Z,18.40
2019-06-26T22:04:30.788Z,18.40
2019-06-26T22:06:59.531Z,18.30
2019-06-26T22:09:28.244Z,18.10
2019-06-26T22:11:59.922Z,17.90
2019-06-26T22:14:27.352Z,17.80
2019-06-26T22:16:56.105Z,17.70
2019-06-26T22:19:25.041Z,17.60
2019-06-26T22:21:53.816Z,17.60
2019-06-26T22:24:22.548Z,17.60
2019-06-26T22:26:51.771Z,17.50
2019-06-26T22:29:20.521Z,17.50
2019-06-26T22:31:49.259Z,17.40
2019-06-26T22:34:17.964Z,17.50
2019-06-26T22:36:51.763Z,17.60
2019-06-26T22:39:17.058Z,17.60
2019-06-26T22:41:45.808Z,17.70
2019-06-26T22:44:14.532Z,17.60
2019-06-26T22:46:43.249Z,17.50
2019-06-26T22:49:31.240Z,17.40
2019-06-26T22:51:59.979Z,17.40
2019-06-26T22:54:28.719Z,17.40
2019-06-26T22:56:57.459Z,17.30
2019-06-26T22:59:26.194Z,17.30
2019-06-26T23:01:54.925Z,17.20
2019-06-26T23:04:23.641Z,17.20
2019-06-26T23:06:52.468Z,17.20
2019-06-26T23:09:21.204Z,17.20
2019-06-26T23:11:49.939Z,17.30
2019-06-26T23:14:18.660Z,17.30
2019-06-26T23:16:47.419Z,17.30
2019-06-26T23:19:16.137Z,17.30
2019-06-26T23:21:44.861Z,17.30
2019-06-26T23:24:13.584Z,17.40
2019-06-26T23:26:42.305Z,17.40
2019-06-26T23:29:11.076Z,17.40
2019-06-26T23:31:39.807Z,17.40
2019-06-26T23:34:08.537Z,17.40
2019-06-26T23:36:37.246Z,17.40
2019-06-26T23:39:06.275Z,17.50
2019-06-26T23:41:35.005Z,17.50
2019-06-26T23:44:03.725Z,17.40
2019-06-26T23:46:32.483Z,17.50
2019-06-26T23:49:01.211Z,17.50
2019-06-26T23:51:29.926Z,17.50
2019-06-26T23:53:58.643Z,17.50
2019-06-26T23:56:40.126Z,17.50
2019-06-26T23:58:57.716Z,17.60
